Time;durP1;ratioP1;P1;durP2;ratioP2;P2;SDS_P1;SDS_P2;PMS_P1;PMS_P2;Temp;Humidity;BMP_temperature;BMP_pressure;BME280_temperature;BME280_humidity;BME280_pressure;Samples;Min_cycle;Max_cycle;Signal;HPM_P1;HPM_P2
2023/09/04 00:00:43;;;;;;;1999.90;999.90;;;23.70;99.90;;;;;;5080803;28;20032;-76
2023/09/04 00:03:09;;;;;;;1999.90;999.90;;;23.70;99.90;;;;;;5093037;28;20058;-77
2023/09/04 00:05:35;;;;;;;1999.90;999.90;;;23.70;99.90;;;;;;5094514;28;20059;-72
2023/09/04 00:08:01;;;;;;;1999.90;999.90;;;23.60;99.90;;;;;;5094527;28;20028;-72
2023/09/04 00:10:27;;;;;;;1999.90;999.90;;;23.50;99.90;;;;;;5091313;28;20024;-76
2023/09/04 00:12:52;;;;;;;1999.90;999.90;;;23.50;99.90;;;;;;5074198;28;20107;-72
2023/09/04 00:15:18;;;;;;;1999.90;999.90;;;23.40;99.90;;;;;;5074342;28;20028;-76
2023/09/04 00:17:49;;;;;;;1999.90;999.90;;;23.40;99.90;;;;;;5074436;28;20029;-72
2023/09/04 00:20:15;;;;;;;1999.90;999.90;;;23.30;99.90;;;;;;5074063;28;20058;-72
2023/09/04 00:22:40;;;;;;;1999.90;999.90;;;23.30;99.90;;;;;;5073049;28;20036;-76
2023/09/04 00:25:06;;;;;;;1999.90;999.90;;;23.30;99.90;;;;;;5073912;28;20028;-77
2023/09/04 00:27:32;;;;;;;1999.90;999.90;;;23.30;99.90;;;;;;5073647;28;20039;-77
2023/09/04 00:29:57;;;;;;;1999.90;999.90;;;23.20;99.90;;;;;;5073610;28;20029;-76
2023/09/04 00:32:23;;;;;;;1999.90;999.90;;;23.10;99.90;;;;;;5073706;28;20043;-72
2023/09/04 00:34:48;;;;;;;1999.90;999.90;;;23.10;99.90;;;;;;5073795;28;20495;-77
2023/09/04 00:37:14;;;;;;;1999.90;999.90;;;23.10;99.90;;;;;;5073311;28;20032;-72
2023/09/04 00:39:40;;;;;;;1999.90;999.90;;;23.10;99.90;;;;;;5074077;28;20391;-76
2023/09/04 00:42:05;;;;;;;1999.90;999.90;;;23.10;99.90;;;;;;5073594;28;20024;-72
2023/09/04 00:44:31;;;;;;;1999.90;999.90;;;23.10;99.90;;;;;;5073226;28;20067;-76
2023/09/04 00:46:58;;;;;;;1999.90;999.90;;;23.10;99.90;;;;;;5074907;28;20563;-72
2023/09/04 00:49:24;;;;;;;1999.90;999.90;;;23.00;99.90;;;;;;5079729;28;20033;-72
2023/09/04 00:51:50;;;;;;;1999.90;999.90;;;23.00;99.90;;;;;;5093612;28;20088;-72
2023/09/04 00:54:17;;;;;;;1999.90;999.90;;;23.00;99.90;;;;;;5093922;28;20032;-76
2023/09/04 00:56:43;;;;;;;1999.90;999.90;;;22.90;99.90;;;;;;5093536;28;20020;-72
2023/09/04 00:59:09;;;;;;;1999.90;999.90;;;23.00;99.90;;;;;;5089806;28;20691;-72
2023/09/04 01:01:35;;;;;;;1999.90;999.90;;;22.90;99.90;;;;;;5082970;28;20024;-77
2023/09/04 01:04:01;;;;;;;1999.90;999.90;;;22.90;99.90;;;;;;5093533;28;20048;-76
2023/09/04 01:06:26;;;;;;;1999.90;999.90;;;22.90;99.90;;;;;;5093134;28;20529;-72
2023/09/04 01:08:52;;;;;;;1999.90;999.90;;;22.90;99.90;;;;;;5093292;28;20050;-76
2023/09/04 01:11:33;;;;;;;1999.90;999.90;;;22.80;99.90;;;;;;5083258;28;20017;-72
2023/09/04 01:14:02;;;;;;;1999.90;999.90;;;22.70;99.90;;;;;;5073067;28;20025;-76
2023/09/04 01:16:28;;;;;;;1999.90;999.90;;;22.70;99.90;;;;;;5073214;28;20104;-76
2023/09/04 01:18:54;;;;;;;1999.90;999.90;;;22.70;99.90;;;;;;5073100;28;20452;-72
2023/09/04 01:21:20;;;;;;;1999.90;999.90;;;22.60;99.90;;;;;;5073205;28;20111;-76
2023/09/04 01:23:45;;;;;;;1999.90;999.90;;;22.60;99.90;;;;;;5073012;28;20104;-72
2023/09/04 01:26:20;;;;;;;1999.90;999.90;;;22.60;99.90;;;;;;5073042;28;20506;-73
2023/09/04 01:28:51;;;;;;;1999.90;999.90;;;22.60;99.90;;;;;;5073172;28;20021;-76
2023/09/04 01:31:26;;;;;;;1999.90;999.90;;;22.60;99.90;;;;;;5073124;28;20074;-77
2023/09/04 01:33:59;;;;;;;1999.90;999.90;;;22.60;99.90;;;;;;5073074;28;20021;-77
2023/09/04 01:36:29;;;;;;;1999.90;999.90;;;22.50;99.90;;;;;;5072913;28;20020;-72
2023/09/04 01:38:56;;;;;;;1999.90;999.90;;;22.50;99.90;;;;;;5072848;28;20013;-72
2023/09/04 01:41:22;;;;;;;1999.90;999.90;;;22.50;99.90;;;;;;5072936;28;20025;-76
2023/09/04 01:43:48;;;;;;;1999.90;999.90;;;22.50;99.90;;;;;;5073070;28;20372;-77
2023/09/04 01:46:13;;;;;;;1999.90;999.90;;;22.40;99.90;;;;;;5071327;28;20051;-76
2023/09/04 01:48:39;;;;;;;1999.90;999.90;;;22.40;99.90;;;;;;5078951;28;20445;-73
2023/09/04 01:51:05;;;;;;;1999.90;999.90;;;22.40;99.90;;;;;;5088777;28;20038;-72
2023/09/04 01:53:30;;;;;;;1999.90;999.90;;;22.40;99.90;;;;;;5092768;28;20387;-76
2023/09/04 01:55:56;;;;;;;1999.90;999.90;;;22.40;99.90;;;;;;5093821;28;20020;-76
2023/09/04 01:58:22;;;;;;;1999.90;999.90;;;22.40;99.90;;;;;;5097203;28;20050;-76
2023/09/04 02:00:47;;;;;;;1999.90;999.90;;;22.40;99.90;;;;;;5084235;28;20491;-77
2023/09/04 02:03:13;;;;;;;1999.90;999.90;;;22.40;99.90;;;;;;5096046;28;20052;-72
2023/09/04 02:05:39;;;;;;;1999.90;999.90;;;22.30;99.90;;;;;;5096994;28;20060;-72
2023/09/04 02:08:07;;;;;;;1999.90;999.90;;;22.30;99.90;;;;;;5095677;28;20033;-76
2023/09/04 02:10:36;;;;;;;1999.90;999.90;;;22.30;99.90;;;;;;5092733;28;20024;-72
2023/09/04 02:13:02;;;;;;;1999.90;999.90;;;22.30;99.90;;;;;;5076505;28;20032;-76
2023/09/04 02:15:31;;;;;;;1999.90;999.90;;;22.30;99.90;;;;;;5076450;28;20020;-72
2023/09/04 02:18:02;;;;;;;1999.90;999.90;;;22.30;99.90;;;;;;5076600;28;20036;-72
2023/09/04 02:20:29;;;;;;;1999.90;999.90;;;22.30;99.90;;;;;;5076324;28;20563;-76
2023/09/04 02:22:54;;;;;;;1999.90;999.90;;;22.30;99.90;;;;;;5076193;28;20028;-77
2023/09/04 02:25:20;;;;;;;1999.90;999.90;;;22.30;99.90;;;;;;5076357;28;20028;-76
2023/09/04 02:27:46;;;;;;;1999.90;999.90;;;22.30;99.90;;;;;;5076243;28;20029;-72
2023/09/04 02:30:11;;;;;;;1999.90;999.90;;;22.20;99.90;;;;;;5076108;28;20126;-72
2023/09/04 02:32:37;;;;;;;1999.90;999.90;;;22.20;99.90;;;;;;5076409;28;20070;-76
2023/09/04 02:35:03;;;;;;;1999.90;999.90;;;22.20;99.90;;;;;;5076119;28;20029;-76
2023/09/04 02:37:29;;;;;;;1999.90;999.90;;;22.20;99.90;;;;;;5075908;28;20532;-72
2023/09/04 02:39:54;;;;;;;1999.90;999.90;;;22.20;99.90;;;;;;5076287;28;20035;-76
2023/09/04 02:42:20;;;;;;;1999.90;999.90;;;22.10;99.90;;;;;;5075882;28;20029;-72
2023/09/04 02:44:46;;;;;;;1999.90;999.90;;;22.10;99.90;;;;;;5076271;28;20103;-72
2023/09/04 02:47:11;;;;;;;1999.90;999.90;;;22.00;99.90;;;;;;5077045;28;20024;-76
2023/09/04 02:49:37;;;;;;;1999.90;999.90;;;22.00;99.90;;;;;;5084969;28;20455;-76
2023/09/04 02:52:03;;;;;;;1999.90;999.90;;;22.00;99.90;;;;;;5096194;28;20032;-76
2023/09/04 02:54:28;;;;;;;1999.90;999.90;;;22.00;99.90;;;;;;5095888;28;20028;-72
2023/09/04 02:56:54;;;;;;;1999.90;999.90;;;21.90;99.90;;;;;;5095031;28;20124;-73
2023/09/04 02:59:20;;;;;;;1999.90;999.90;;;21.90;99.90;;;;;;5091283;28;20490;-77
2023/09/04 03:01:49;;;;;;;1999.90;999.90;;;21.90;99.90;;;;;;5086393;28;20032;-76
2023/09/04 03:04:16;;;;;;;1999.90;999.90;;;21.90;99.90;;;;;;5095949;28;20052;-76
2023/09/04 03:06:41;;;;;;;1999.90;999.90;;;21.90;99.90;;;;;;5095506;28;20057;-72
2023/09/04 03:09:07;;;;;;;1999.90;999.90;;;21.90;99.90;;;;;;5096167;28;20051;-72
2023/09/04 03:11:33;;;;;;;1999.90;999.90;;;21.90;99.90;;;;;;5081955;28;20041;-76
2023/09/04 03:13:59;;;;;;;1999.90;999.90;;;21.90;99.90;;;;;;5075318;28;20091;-76
2023/09/04 03:16:25;;;;;;;1999.90;999.90;;;21.90;99.90;;;;;;5075310;28;20031;-76
2023/09/04 03:18:51;;;;;;;1999.90;999.90;;;21.90;99.90;;;;;;5075850;28;20039;-72
2023/09/04 03:21:16;;;;;;;1999.90;999.90;;;21.90;99.90;;;;;;5073298;28;20551;-72
2023/09/04 03:23:42;;;;;;;1999.90;999.90;;;21.90;99.90;;;;;;5075283;28;20016;-72
2023/09/04 03:26:07;;;;;;;1999.90;999.90;;;21.90;99.90;;;;;;5073936;28;20024;-76
2023/09/04 03:28:33;;;;;;;1999.90;999.90;;;21.80;99.90;;;;;;5074959;28;20024;-76
2023/09/04 03:30:59;;;;;;;1999.90;999.90;;;21.90;99.90;;;;;;5075302;28;20032;-77
2023/09/04 03:33:24;;;;;;;1999.90;999.90;;;21.80;99.90;;;;;;5075428;28;20028;-71
2023/09/04 03:35:50;;;;;;;1999.90;999.90;;;21.80;99.90;;;;;;5074996;28;20399;-72
2023/09/04 03:38:16;;;;;;;1999.90;999.90;;;21.80;99.90;;;;;;5074845;28;20071;-77
2023/09/04 03:40:41;;;;;;;1999.90;999.90;;;21.80;99.90;;;;;;5074868;28;20020;-76
2023/09/04 03:43:07;;;;;;;1999.90;999.90;;;21.80;99.90;;;;;;5074911;28;20053;-72
2023/09/04 03:45:34;;;;;;;1999.90;999.90;;;21.70;99.90;;;;;;5075125;28;20029;-77
2023/09/04 03:47:59;;;;;;;1999.90;999.90;;;21.70;99.90;;;;;;5080106;28;20032;-72
2023/09/04 03:50:25;;;;;;;1999.90;999.90;;;21.70;99.90;;;;;;5086051;28;20036;-76
2023/09/04 03:52:51;;;;;;;1999.90;999.90;;;21.60;99.90;;;;;;5094905;28;20071;-72
2023/09/04 03:55:16;;;;;;;1999.90;999.90;;;21.60;99.90;;;;;;5095122;28;20024;-76
2023/09/04 03:57:43;;;;;;;1999.90;999.90;;;21.60;99.90;;;;;;5094843;28;20016;-76
2023/09/04 04:00:16;;;;;;;1999.90;999.90;;;21.60;99.90;;;;;;5087549;28;20028;-72
2023/09/04 04:02:43;;;;;;;;;;;21.50;99.90;;;;;;5089508;28;20111;-76
2023/09/04 04:05:13;;;;;;;1999.90;999.90;;;21.50;99.90;;;;;;5087472;28;19923;-76
2023/09/04 04:07:38;;;;;;;1999.90;999.90;;;21.40;99.90;;;;;;5088182;28;20028;-76
2023/09/04 04:10:05;;;;;;;1999.90;999.90;;;21.40;99.90;;;;;;5094489;28;20391;-76
2023/09/04 04:12:31;;;;;;;1999.90;999.90;;;21.30;99.90;;;;;;5074196;28;20435;-72
2023/09/04 04:14:57;;;;;;;1999.90;999.90;;;21.30;99.90;;;;;;5074250;28;20032;-72
2023/09/04 04:17:26;;;;;;;1999.90;999.90;;;21.30;99.90;;;;;;5074185;28;20062;-76
2023/09/04 04:19:53;;;;;;;1999.90;999.90;;;21.30;99.90;;;;;;5073863;28;20100;-76
2023/09/04 04:22:23;;;;;;;1999.90;999.90;;;21.20;99.90;;;;;;5074094;28;20030;-76
2023/09/04 04:24:49;;;;;;;1999.90;999.90;;;21.20;99.90;;;;;;5074326;28;20443;-72
2023/09/04 04:27:15;;;;;;;1999.90;999.90;;;21.20;99.90;;;;;;5074303;28;20037;-72
2023/09/04 04:29:45;;;;;;;1999.90;999.90;;;21.20;99.90;;;;;;5074583;28;20468;-72
2023/09/04 04:32:10;;;;;;;1999.90;999.90;;;21.10;99.90;;;;;;5073817;28;20021;-75
2023/09/04 04:34:36;;;;;;;1999.90;999.90;;;21.10;99.90;;;;;;5080151;28;20044;-72
2023/09/04 04:37:02;;;;;;;1999.90;999.90;;;21.10;99.90;;;;;;5076241;28;20031;-76
2023/09/04 04:39:27;;;;;;;1999.90;999.90;;;21.10;99.90;;;;;;5077900;28;20530;-72
2023/09/04 04:41:53;;;;;;;1999.90;999.90;;;21.00;99.90;;;;;;5073811;28;20031;-76
2023/09/04 04:44:19;;;;;;;1999.90;999.90;;;21.00;99.90;;;;;;5072896;28;20032;-76
2023/09/04 04:46:46;;;;;;;1999.90;999.90;;;21.00;99.90;;;;;;5073842;28;20032;-76
2023/09/04 04:49:13;;;;;;;1999.90;999.90;;;21.00;99.90;;;;;;5079135;28;20021;-76
2023/09/04 04:51:39;;;;;;;1999.90;999.90;;;20.90;99.90;;;;;;5067082;28;20134;-72
2023/09/04 04:54:04;;;;;;;1999.90;999.90;;;20.90;99.90;;;;;;5073605;28;20239;-72
2023/09/04 04:56:30;;;;;;;1999.90;999.90;;;20.90;99.90;;;;;;5077305;28;20407;-76
2023/09/04 04:58:56;;;;;;;1999.90;999.90;;;20.90;99.90;;;;;;5082196;28;20024;-76
2023/09/04 05:01:21;;;;;;;1999.90;999.90;;;20.90;99.90;;;;;;5081043;28;20020;-76
2023/09/04 05:03:47;;;;;;;1999.90;999.90;;;20.90;99.90;;;;;;5073387;28;20056;-72
2023/09/04 05:06:12;;;;;;;1999.90;999.90;;;20.90;99.90;;;;;;5073204;28;20032;-72
2023/09/04 05:08:38;;;;;;;1999.90;999.90;;;20.90;99.90;;;;;;5075392;28;20560;-76
2023/09/04 05:11:05;;;;;;;1999.90;999.90;;;20.90;99.90;;;;;;5080097;28;20059;-76
2023/09/04 05:13:31;;;;;;;1999.90;999.90;;;20.90;99.90;;;;;;5086349;28;20028;-77
2023/09/04 05:16:03;;;;;;;1999.90;999.90;;;20.90;99.90;;;;;;5073059;28;20391;-76
2023/09/04 05:18:29;;;;;;;1999.90;999.90;;;20.90;99.90;;;;;;5073014;28;20179;-72
2023/09/04 05:20:55;;;;;;;1999.90;999.90;;;20.90;99.90;;;;;;5073222;28;20104;-71
2023/09/04 05:23:21;;;;;;;1999.90;999.90;;;20.80;99.90;;;;;;5072992;28;20415;-76
2023/09/04 05:25:53;;;;;;;1999.90;999.90;;;20.80;99.90;;;;;;5072972;28;20060;-76
2023/09/04 05:28:19;;;;;;;1999.90;999.90;;;20.80;99.90;;;;;;5072882;28;20056;-76
2023/09/04 05:30:45;;;;;;;1999.90;999.90;;;20.80;99.90;;;;;;5071924;28;20028;-72
2023/09/04 05:33:11;;;;;;;1999.90;999.90;;;20.80;99.90;;;;;;5075713;28;20052;-72
2023/09/04 05:35:36;;;;;;;1999.90;999.90;;;20.80;99.90;;;;;;5083790;28;20025;-76
2023/09/04 05:38:02;;;;;;;1999.90;999.90;;;20.80;99.90;;;;;;5072371;28;20031;-72
2023/09/04 05:40:28;;;;;;;1999.90;999.90;;;20.80;99.90;;;;;;5072151;28;20031;-76
2023/09/04 05:42:54;;;;;;;1999.90;999.90;;;20.80;99.90;;;;;;5072604;28;20029;-72
2023/09/04 05:45:19;;;;;;;1999.90;999.90;;;20.80;99.90;;;;;;5070485;28;20042;-72
2023/09/04 05:47:48;;;;;;;1999.90;999.90;;;20.80;99.90;;;;;;5064101;28;20101;-76
2023/09/04 05:50:14;;;;;;;1999.90;999.90;;;20.80;99.90;;;;;;5080958;28;20113;-76
2023/09/04 05:52:39;;;;;;;1999.90;999.90;;;20.80;99.90;;;;;;5072153;28;20048;-76
2023/09/04 05:55:06;;;;;;;1999.90;999.90;;;20.80;99.90;;;;;;5072055;28;20496;-77
2023/09/04 05:57:32;;;;;;;1999.90;999.90;;;20.80;99.90;;;;;;5072313;28;20024;-72
2023/09/04 05:59:58;;;;;;;1999.90;999.90;;;20.80;99.90;;;;;;5077957;28;20491;-72
2023/09/04 06:02:24;;;;;;;1999.90;999.90;;;20.80;99.90;;;;;;5075047;28;20086;-77
2023/09/04 06:04:50;;;;;;;1999.90;999.90;;;20.90;99.90;;;;;;5078983;28;20090;-78
2023/09/04 06:07:16;;;;;;;1999.90;999.90;;;20.90;99.90;;;;;;5066377;28;20037;-72
2023/09/04 06:09:44;;;;;;;1999.90;999.90;;;20.90;99.90;;;;;;5070146;28;20103;-72
2023/09/04 06:12:14;;;;;;;1999.90;999.90;;;21.00;99.90;;;;;;5073416;28;20032;-72
2023/09/04 06:14:39;;;;;;;1999.90;999.90;;;21.00;99.90;;;;;;5072104;28;20021;-77
2023/09/04 06:17:05;;;;;;;1999.90;999.90;;;21.10;99.90;;;;;;5078271;28;20577;-73
2023/09/04 06:19:31;;;;;;;1999.90;999.90;;;21.20;99.90;;;;;;5080614;28;20050;-73
2023/09/04 06:21:57;;;;;;;1999.90;999.90;;;21.20;99.90;;;;;;5074262;28;20066;-72
2023/09/04 06:24:22;;;;;;;1999.90;999.90;;;21.30;99.90;;;;;;5072808;28;20020;-73
2023/09/04 06:26:48;;;;;;;1999.90;999.90;;;21.40;99.90;;;;;;5074110;28;20380;-77
2023/09/04 06:29:17;;;;;;;1999.90;999.90;;;21.50;99.90;;;;;;5071047;28;20055;-73
2023/09/04 06:31:42;;;;;;;1999.90;999.90;;;21.50;99.90;;;;;;5071505;28;20378;-73
2023/09/04 06:34:08;;;;;;;1999.90;999.90;;;21.70;99.90;;;;;;5071501;28;20028;-77
2023/09/04 06:36:34;;;;;;;1999.90;999.90;;;21.70;99.90;;;;;;5071089;28;20023;-72
2023/09/04 06:39:00;;;;;;;1999.90;999.90;;;21.80;99.90;;;;;;5071350;28;20032;-79
2023/09/04 06:41:25;;;;;;;1999.90;999.90;;;21.90;99.90;;;;;;5071271;28;20077;-78
2023/09/04 06:43:51;;;;;;;1999.90;999.90;;;22.00;99.90;;;;;;5074847;28;20115;-78
2023/09/04 06:46:17;;;;;;;1999.90;999.90;;;22.10;99.90;;;;;;5078332;28;20103;-78
2023/09/04 06:48:42;;;;;;;1999.90;999.90;;;22.20;99.90;;;;;;5083098;28;20205;-75
2023/09/04 06:51:08;;;;;;;1999.90;999.90;;;22.30;99.90;;;;;;5082264;28;20032;-72
2023/09/04 06:53:34;;;;;;;1999.90;999.90;;;22.40;99.90;;;;;;5082567;28;20115;-78
2023/09/04 06:56:00;;;;;;;1999.90;999.90;;;22.50;99.90;;;;;;5079447;28;20025;-78
2023/09/04 06:58:26;;;;;;;1999.90;999.90;;;22.60;99.90;;;;;;5073886;28;20086;-78
2023/09/04 07:00:55;;;;;;;1999.90;999.90;;;22.70;99.90;;;;;;5080337;28;20016;-72
2023/09/04 07:03:22;;;;;;;1999.90;999.90;;;22.90;99.90;;;;;;5088486;28;20050;-72
2023/09/04 07:05:48;;;;;;;1999.90;999.90;;;23.10;99.90;;;;;;5077400;28;20033;-78
2023/09/04 07:08:14;;;;;;;1999.90;999.90;;;23.20;99.90;;;;;;5073905;28;20025;-77
2023/09/04 07:10:39;;;;;;;1999.90;999.90;;;23.30;99.90;;;;;;5073542;28;20021;-78
2023/09/04 07:13:05;;;;;;;1999.90;999.90;;;23.50;99.90;;;;;;5078439;28;20264;-78
2023/09/04 07:15:31;;;;;;;1999.90;999.90;;;23.70;99.90;;;;;;5080737;28;20438;-72
2023/09/04 07:18:00;;;;;;;1999.90;999.90;;;23.80;99.90;;;;;;5074106;28;20029;-78
2023/09/04 07:20:28;;;;;;;1999.90;999.90;;;24.00;99.90;;;;;;5073804;28;20377;-72
2023/09/04 07:22:54;;;;;;;1999.90;999.90;;;24.20;99.90;;;;;;5075478;28;20123;-78
2023/09/04 07:25:21;;;;;;;1999.90;999.90;;;24.40;99.90;;;;;;5093978;28;20103;-78
2023/09/04 07:27:47;;;;;;;1999.90;999.90;;;24.50;99.90;;;;;;5074038;28;20066;-73
2023/09/04 07:30:12;;;;;;;1999.90;999.90;;;24.60;99.90;;;;;;5073366;28;20025;-73
2023/09/04 07:32:38;;;;;;;1999.90;999.90;;;24.80;99.90;;;;;;5068893;28;20107;-78
2023/09/04 07:35:05;;;;;;;1999.90;999.90;;;25.00;99.90;;;;;;5075088;28;20107;-78
2023/09/04 07:37:30;;;;;;;1999.90;999.90;;;25.20;99.90;;;;;;5082835;28;20032;-78
2023/09/04 07:39:56;;;;;;;1999.90;999.90;;;25.40;99.90;;;;;;5073258;28;20071;-73
2023/09/04 07:42:23;;;;;;;1999.90;999.90;;;25.60;99.90;;;;;;5081672;28;20108;-73
2023/09/04 07:44:48;;;;;;;1999.90;999.90;;;25.80;99.90;;;;;;5077718;28;20024;-79
2023/09/04 07:47:14;;;;;;;1999.90;999.90;;;26.10;99.90;;;;;;5076143;28;20051;-76
2023/09/04 07:49:40;;;;;;;1999.90;999.90;;;26.30;99.90;;;;;;5074165;28;20032;-77
2023/09/04 07:52:05;;;;;;;1999.90;999.90;;;26.70;99.90;;;;;;5064339;28;20068;-77
2023/09/04 07:54:31;;;;;;;1999.90;999.90;;;27.60;99.90;;;;;;5068298;28;20024;-78
2023/09/04 07:56:59;;;;;;;1999.90;999.90;;;29.50;99.90;;;;;;5064122;28;20515;-72
2023/09/04 07:59:24;;;;;;;1999.90;999.90;;;30.60;99.90;;;;;;5075022;28;20017;-79
2023/09/04 08:01:50;;;;;;;1999.90;999.90;;;30.90;99.90;;;;;;5080498;28;20506;-77
2023/09/04 08:04:16;;;;;;;1999.90;999.90;;;31.70;99.90;;;;;;5067099;28;20045;-73
2023/09/04 08:06:41;;;;;;;1999.90;999.90;;;32.00;99.90;;;;;;5063667;28;20498;-72
2023/09/04 08:09:07;;;;;;;1999.90;999.90;;;32.00;99.50;;;;;;5069309;28;20025;-81
2023/09/04 08:11:34;;;;;;;1999.90;999.90;;;32.40;98.40;;;;;;5074706;28;20545;-73
2023/09/04 08:13:59;;;;;;;1999.90;999.90;;;33.00;97.80;;;;;;5074799;28;20040;-81
2023/09/04 08:16:25;;;;;;;1999.90;999.90;;;33.20;96.90;;;;;;5071762;28;20032;-80
2023/09/04 08:18:51;;;;;;;1999.90;999.90;;;33.30;97.20;;;;;;5080028;28;20035;-74
2023/09/04 08:21:17;;;;;;;1999.90;999.90;;;33.30;96.90;;;;;;5082413;28;20012;-74
2023/09/04 08:23:42;;;;;;;1999.90;999.90;;;33.30;96.20;;;;;;5071998;28;20487;-78
2023/09/04 08:26:08;;;;;;;1999.90;999.90;;;33.70;95.70;;;;;;5072918;28;20029;-74
2023/09/04 08:28:34;;;;;;;1999.90;999.90;;;33.70;95.50;;;;;;5071590;28;20128;-80
2023/09/04 08:31:00;;;;;;;1999.90;999.90;;;34.20;95.40;;;;;;5063238;28;20551;-81
2023/09/04 08:33:26;;;;;;;1999.90;999.90;;;34.80;94.90;;;;;;5070718;28;20044;-73
2023/09/04 08:35:52;;;;;;;1999.90;999.90;;;35.20;93.90;;;;;;5071679;28;20024;-73
2023/09/04 08:38:17;;;;;;;1999.90;999.90;;;34.90;93.40;;;;;;5071450;28;20044;-73
2023/09/04 08:40:44;;;;;;;1999.90;999.90;;;35.30;93.00;;;;;;5072054;28;20443;-81
2023/09/04 08:43:10;;;;;;;1999.90;999.90;;;35.70;93.10;;;;;;5080308;28;20021;-79
2023/09/04 08:45:36;;;;;;;1999.90;999.90;;;36.60;92.50;;;;;;5064103;28;20115;-73
2023/09/04 08:48:03;;;;;;;1999.90;999.90;;;36.20;92.00;;;;;;5077459;28;20024;-72
2023/09/04 08:50:30;;;;;;;1999.90;999.90;;;36.30;91.50;;;;;;5073505;28;20036;-82
2023/09/04 08:52:56;;;;;;;1999.90;999.90;;;36.90;91.50;;;;;;5071588;28;20078;-81
2023/09/04 08:55:21;;;;;;;1999.90;999.90;;;37.50;91.30;;;;;;5071339;28;20024;-81
2023/09/04 08:57:47;;;;;;;1999.90;999.90;;;37.40;90.80;;;;;;5071708;28;20056;-82
2023/09/04 09:00:15;;;;;;;1999.90;999.90;;;37.50;90.80;;;;;;5076705;28;20022;-74
2023/09/04 09:02:44;;;;;;;1999.90;999.90;;;37.70;90.90;;;;;;5076391;28;20029;-81
2023/09/04 09:05:15;;;;;;;1999.90;999.90;;;38.10;90.20;;;;;;5066432;28;20078;-82
2023/09/04 09:07:41;;;;;;;1999.90;999.90;;;38.20;89.20;;;;;;5070990;28;20032;-82
2023/09/04 09:10:09;;;;;;;1999.90;999.90;;;38.40;89.60;;;;;;5071288;28;20107;-73
2023/09/04 09:12:35;;;;;;;1999.90;999.90;;;38.40;88.00;;;;;;5063593;28;20029;-73
2023/09/04 09:15:01;;;;;;;1999.90;999.90;;;38.40;88.60;;;;;;5067621;28;20081;-73
2023/09/04 09:17:27;;;;;;;1999.90;999.90;;;38.50;87.30;;;;;;5064929;28;20025;-82
2023/09/04 09:19:53;;;;;;;1999.90;999.90;;;37.30;87.80;;;;;;5068851;28;20054;-83
2023/09/04 09:22:20;;;;;;;1999.90;999.90;;;36.90;88.80;;;;;;5071427;28;20101;-82
2023/09/04 09:24:54;;;;;;;1999.90;999.90;;;37.10;88.50;;;;;;5075324;28;20079;-73
2023/09/04 09:27:22;;;;;;;1999.90;999.90;;;36.20;88.30;;;;;;5071480;28;20031;-72
2023/09/04 09:29:48;;;;;;;1999.90;999.90;;;36.60;88.40;;;;;;5071828;28;20036;-82
2023/09/04 09:32:19;;;;;;;1999.90;999.90;;;36.60;88.20;;;;;;5072023;28;20031;-82
2023/09/04 09:34:51;;;;;;;1999.90;999.90;;;37.20;86.40;;;;;;5071282;28;20029;-82
2023/09/04 09:37:21;;;;;;;1999.90;999.90;;;37.50;85.80;;;;;;5071435;28;20009;-82
2023/09/04 09:39:47;;;;;;;1999.90;999.90;;;37.00;85.50;;;;;;5071373;28;20029;-73
2023/09/04 09:42:13;;;;;;;1999.90;999.90;;;36.70;85.60;;;;;;5080404;28;20092;-81
2023/09/04 09:44:39;;;;;;;1999.90;999.90;;;36.90;85.10;;;;;;5071038;28;20051;-82
2023/09/04 09:47:11;;;;;;;1999.90;999.90;;;36.10;84.70;;;;;;5071706;28;20029;-81
2023/09/04 09:49:39;;;;;;;1999.90;999.90;;;36.50;83.90;;;;;;5076466;28;20074;-73
2023/09/04 09:52:07;;;;;;;1999.90;999.90;;;37.10;84.70;;;;;;5067812;28;20119;-74
2023/09/04 09:54:44;;;;;;;1999.90;999.90;;;36.80;83.20;;;;;;5073745;28;20028;-82
2023/09/04 09:57:12;;;;;;;1999.90;999.90;;;36.50;83.10;;;;;;5071124;28;20074;-81
2023/09/04 09:59:41;;;;;;;1999.90;999.90;;;36.10;83.50;;;;;;5076516;28;20024;-82
2023/09/04 10:02:07;;;;;;;1999.90;999.90;;;35.60;83.80;;;;;;5080392;28;20028;-80
2023/09/04 10:04:34;;;;;;;1999.90;999.90;;;35.10;84.60;;;;;;5075602;28;20859;-74
2023/09/04 10:07:02;;;;;;;1999.90;999.90;;;34.30;85.20;;;;;;5072232;28;20021;-81
2023/09/04 10:09:30;;;;;;;1999.90;999.90;;;34.00;86.00;;;;;;5088834;28;20029;-82
2023/09/04 10:12:23;;;;;;;1999.90;999.90;;;34.20;86.20;;;;;;5072700;28;20104;-81
2023/09/04 10:14:55;;;;;;;1999.90;999.90;;;33.80;86.40;;;;;;5067697;28;20027;-72
2023/09/04 10:17:32;;;;;;;1999.90;999.90;;;34.00;86.50;;;;;;5068012;28;20394;-72
2023/09/04 10:20:00;;;;;;;1999.90;999.90;;;33.90;87.30;;;;;;5068781;28;20028;-81
2023/09/04 10:22:43;;;;;;;1999.90;999.90;;;33.80;87.60;;;;;;5074473;28;20033;-82
2023/09/04 10:25:40;;;;;;;1999.90;999.90;;;33.90;88.50;;;;;;5074216;28;20025;-79
2023/09/04 10:28:17;;;;;;;1999.90;999.90;;;34.50;87.90;;;;;;5074505;28;20056;-81
2023/09/04 10:30:49;;;;;;;1999.90;999.90;;;34.40;87.80;;;;;;5070182;28;20075;-83
2023/09/04 10:33:15;;;;;;;1999.90;999.90;;;34.50;87.30;;;;;;5074357;28;20063;-72
2023/09/04 10:35:41;;;;;;;1999.90;999.90;;;34.10;87.80;;;;;;5074234;28;20496;-81
2023/09/04 10:38:08;;;;;;;1999.90;999.90;;;34.10;87.70;;;;;;5073054;28;20025;-82
2023/09/04 10:40:34;;;;;;;1999.90;999.90;;;33.80;87.80;;;;;;5074352;28;20024;-82
2023/09/04 10:43:03;;;;;;;1999.90;999.90;;;34.20;87.50;;;;;;5074431;28;20021;-73
2023/09/04 10:45:30;;;;;;;1999.90;999.90;;;33.80;88.10;;;;;;5074068;28;20029;-73
2023/09/04 10:47:56;;;;;;;1999.90;999.90;;;34.20;88.40;;;;;;5076238;28;20115;-81
2023/09/04 10:50:29;;;;;;;1999.90;999.90;;;34.80;87.70;;;;;;5076275;28;20117;-81
2023/09/04 10:52:56;;;;;;;1999.90;999.90;;;34.90;87.40;;;;;;5075421;28;20028;-81
2023/09/04 10:55:23;;;;;;;1999.90;999.90;;;35.10;87.40;;;;;;5078295;28;20024;-73
2023/09/04 10:58:00;;;;;;;1999.90;999.90;;;35.00;86.40;;;;;;5073934;28;20056;-73
2023/09/04 11:00:34;;;;;;;1999.90;999.90;;;34.90;84.50;;;;;;5080279;28;20028;-81
2023/09/04 11:03:19;;;;;;;1999.90;999.90;;;34.60;83.90;;;;;;5082457;28;20036;-80
2023/09/04 11:06:06;;;;;;;1999.90;999.90;;;34.60;85.30;;;;;;5074022;28;20471;-81
2023/09/04 11:08:50;;;;;;;1999.90;999.90;;;34.40;85.20;;;;;;5073489;28;20056;-74
2023/09/04 11:11:20;;;;;;;1999.90;999.90;;;34.50;84.90;;;;;;5073607;28;20046;-74
2023/09/04 11:13:54;;;;;;;1999.90;999.90;;;34.30;84.80;;;;;;5073981;28;20025;-73
2023/09/04 11:16:19;;;;;;;1999.90;999.90;;;34.40;85.30;;;;;;5073097;28;20123;-82
2023/09/04 11:18:46;;;;;;;1999.90;999.90;;;34.50;85.40;;;;;;5067779;28;20442;-72
2023/09/04 11:21:14;;;;;;;1999.90;999.90;;;34.80;85.00;;;;;;5071536;28;20029;-73
2023/09/04 11:23:41;;;;;;;1999.90;999.90;;;34.90;84.70;;;;;;5078912;28;20432;-73
2023/09/04 11:26:07;;;;;;;1999.90;999.90;;;35.00;85.10;;;;;;5070557;28;20123;-81
2023/09/04 11:28:34;;;;;;;1999.90;999.90;;;35.00;85.90;;;;;;5073768;28;20108;-82
2023/09/04 11:31:00;;;;;;;1999.90;999.90;;;35.10;85.40;;;;;;5074016;28;20479;-81
2023/09/04 11:33:27;;;;;;;1999.90;999.90;;;35.60;85.10;;;;;;5074160;28;20032;-81
2023/09/04 11:36:04;;;;;;;1999.90;999.90;;;35.50;84.30;;;;;;5072839;28;20079;-72
2023/09/04 11:38:31;;;;;;;1999.90;999.90;;;35.50;84.40;;;;;;5073145;28;20017;-81
2023/09/04 11:40:57;;;;;;;1999.90;999.90;;;35.50;84.30;;;;;;5073565;28;20024;-82
2023/09/04 11:43:27;;;;;;;1999.90;999.90;;;35.30;85.00;;;;;;5073237;28;20089;-81
2023/09/04 11:45:57;;;;;;;1999.90;999.90;;;35.00;84.80;;;;;;5073112;28;20488;-80
2023/09/04 11:48:27;;;;;;;1999.90;999.90;;;34.80;84.40;;;;;;5078267;28;20032;-73
2023/09/04 11:50:54;;;;;;;1999.90;999.90;;;34.70;85.40;;;;;;5071100;28;20407;-81
2023/09/04 11:53:21;;;;;;;1999.90;999.90;;;35.00;84.60;;;;;;5066621;28;20059;-80
2023/09/04 11:55:47;;;;;;;1999.90;999.90;;;35.10;84.60;;;;;;5073082;28;20403;-79
2023/09/04 11:58:13;;;;;;;1999.90;999.90;;;35.00;84.90;;;;;;5076480;28;20028;-80